Time;durP1;ratioP1;P1;durP2;ratioP2;P2;SDS_P1;SDS_P2;PMS_P1;PMS_P2;Temp;Humidity;BMP_temperature;BMP_pressure;BME280_temperature;BME280_humidity;BME280_pressure;Samples;Min_cycle;Max_cycle;Signal;HPM_P1;HPM_P2
2021/04/29 00:01:18;;;;;;;34.15;20.27;;;15.40;99.90;;;;;;4886496;29;20028;-74
2021/04/29 00:03:43;;;;;;;33.33;20.58;;;15.40;99.90;;;;;;4892245;29;20064;-74
2021/04/29 00:06:09;;;;;;;33.63;20.90;;;15.40;99.90;;;;;;4894612;29;20040;-74
2021/04/29 00:08:35;;;;;;;32.28;19.98;;;15.40;99.90;;;;;;4882362;29;20022;-74
2021/04/29 00:11:03;;;;;;;32.35;20.83;;;15.30;99.90;;;;;;4884294;29;20108;-74
2021/04/29 00:13:29;;;;;;;33.20;20.73;;;15.30;99.90;;;;;;4880297;29;20033;-74
2021/04/29 00:15:55;;;;;;;33.95;20.67;;;15.20;99.90;;;;;;4885643;29;20153;-74
2021/04/29 00:18:21;;;;;;;30.17;20.00;;;15.20;99.90;;;;;;4863236;29;20036;-74
2021/04/29 00:20:47;;;;;;;31.88;20.58;;;15.20;99.90;;;;;;4866629;29;20060;-74
2021/04/29 00:23:13;;;;;;;33.13;20.15;;;15.20;99.90;;;;;;4886786;29;20524;-74
2021/04/29 00:25:39;;;;;;;33.78;20.75;;;15.20;99.90;;;;;;4877746;29;20119;-74
2021/04/29 00:28:05;;;;;;;29.10;19.10;;;15.20;99.90;;;;;;4888428;29;20493;-74
2021/04/29 00:30:31;;;;;;;29.73;19.10;;;15.20;99.90;;;;;;4887763;29;20033;-74
2021/04/29 00:32:56;;;;;;;29.83;20.55;;;15.20;99.90;;;;;;4887681;29;20493;-74
2021/04/29 00:35:22;;;;;;;27.25;19.00;;;15.20;99.90;;;;;;4880891;29;20021;-74
2021/04/29 00:37:48;;;;;;;27.98;19.63;;;15.20;99.90;;;;;;4891110;29;20041;-74
2021/04/29 00:40:15;;;;;;;26.42;19.70;;;15.20;99.90;;;;;;4891409;29;20029;-74
2021/04/29 00:42:42;;;;;;;32.88;19.23;;;15.20;99.90;;;;;;4888261;29;20033;-74
2021/04/29 00:45:12;;;;;;;29.50;19.27;;;15.20;99.90;;;;;;4869690;29;20044;-74
2021/04/29 00:47:39;;;;;;;30.42;20.25;;;15.20;99.90;;;;;;4886849;29;20040;-73
2021/04/29 00:50:10;;;;;;;30.30;19.70;;;15.10;99.90;;;;;;4887710;29;20416;-74
2021/04/29 00:52:35;;;;;;;30.50;19.95;;;15.10;99.90;;;;;;4880533;29;20654;-74
2021/04/29 00:55:03;;;;;;;30.80;21.20;;;15.10;99.90;;;;;;4885622;29;20041;-74
2021/04/29 00:57:29;;;;;;;36.35;21.58;;;15.20;99.90;;;;;;4894665;29;20475;-74
2021/04/29 00:59:55;;;;;;;35.03;21.20;;;15.10;99.90;;;;;;4874934;29;20032;-74
2021/04/29 01:02:23;;;;;;;32.55;21.00;;;15.10;99.90;;;;;;4865431;29;20029;-74
2021/04/29 01:04:59;;;;;;;33.83;21.75;;;15.10;99.90;;;;;;4863642;29;20157;-74
2021/04/29 01:07:29;;;;;;;32.70;20.63;;;15.10;99.90;;;;;;4887109;29;20028;-74
2021/04/29 01:10:27;;;;;;;33.40;21.17;;;15.10;99.90;;;;;;4885124;29;20033;-74
2021/04/29 01:13:01;;;;;;;33.90;21.73;;;15.10;99.90;;;;;;4876342;29;20037;-74
2021/04/29 01:15:27;;;;;;;33.40;21.80;;;15.10;99.90;;;;;;4892576;29;20029;-74
2021/04/29 01:17:54;;;;;;;34.63;21.92;;;15.10;99.90;;;;;;4887934;29;20043;-74
2021/04/29 01:20:29;;;;;;;37.78;22.55;;;15.00;99.90;;;;;;4886022;29;20103;-74
2021/04/29 01:23:13;;;;;;;34.97;21.48;;;15.00;99.90;;;;;;4872002;29;20052;-74
2021/04/29 01:25:41;;;;;;;35.08;21.85;;;15.00;99.90;;;;;;4882594;29;20033;-74
2021/04/29 01:28:08;;;;;;;31.77;20.90;;;15.00;99.90;;;;;;4894116;29;20055;-74
2021/04/29 01:30:35;;;;;;;36.53;21.90;;;15.00;99.90;;;;;;4888076;29;20070;-74
2021/04/29 01:33:01;;;;;;;38.47;22.38;;;15.00;99.90;;;;;;4886484;29;20053;-74
2021/04/29 01:35:27;;;;;;;37.38;22.58;;;15.00;99.90;;;;;;4877806;29;20031;-74
2021/04/29 01:37:55;;;;;;;36.33;23.30;;;15.00;99.90;;;;;;4883139;29;20498;-74
2021/04/29 01:40:21;;;;;;;32.88;22.60;;;15.00;99.90;;;;;;4883992;29;20029;-74
2021/04/29 01:42:48;;;;;;;35.58;22.10;;;15.00;99.90;;;;;;4894200;29;20088;-74
2021/04/29 01:45:14;;;;;;;35.75;21.55;;;15.00;99.90;;;;;;4882912;29;20100;-74
2021/04/29 01:47:40;;;;;;;36.92;20.95;;;15.10;99.90;;;;;;4887109;29;20036;-74
2021/04/29 01:50:09;;;;;;;31.88;20.77;;;15.10;99.90;;;;;;4874568;29;20021;-74
2021/04/29 01:52:35;;;;;;;33.05;20.63;;;15.10;99.90;;;;;;4886199;29;20414;-74
2021/04/29 01:55:02;;;;;;;31.98;21.30;;;15.10;99.90;;;;;;4885318;29;20033;-74
2021/04/29 01:57:28;;;;;;;33.92;21.10;;;15.00;99.90;;;;;;4879450;29;20546;-74
2021/04/29 01:59:55;;;;;;;34.22;21.55;;;15.00;99.90;;;;;;4889179;29;20024;-74
2021/04/29 02:02:23;;;;;;;33.08;21.90;;;15.00;99.90;;;;;;4884305;29;20045;-74
2021/04/29 02:04:49;;;;;;;34.65;21.58;;;15.00;99.90;;;;;;4886853;29;20029;-74
2021/04/29 02:07:16;;;;;;;32.40;21.73;;;15.00;99.90;;;;;;4887221;29;20036;-74
2021/04/29 02:09:41;;;;;;;34.22;22.33;;;15.00;99.90;;;;;;4862294;29;20028;-74
2021/04/29 02:12:09;;;;;;;32.65;20.58;;;14.90;99.90;;;;;;4879050;29;20017;-74
2021/04/29 02:15:08;;;;;;;36.25;22.60;;;14.90;99.90;;;;;;4891812;29;20086;-74
2021/04/29 02:17:42;;;;;;;32.70;21.25;;;14.90;99.90;;;;;;4848469;29;20064;-74
2021/04/29 02:20:12;;;;;;;35.17;21.48;;;14.80;99.90;;;;;;4879356;29;20017;-74
2021/04/29 02:22:40;;;;;;;34.40;21.17;;;14.80;99.90;;;;;;4861292;29;20028;-74
2021/04/29 02:25:13;;;;;;;35.65;22.42;;;14.90;99.90;;;;;;4878678;29;20088;-74
2021/04/29 02:27:39;;;;;;;31.02;20.05;;;14.90;99.90;;;;;;4867604;29;20382;-74
2021/04/29 02:30:15;;;;;;;29.02;20.45;;;14.80;99.90;;;;;;4879983;29;20517;-74
2021/04/29 02:32:41;;;;;;;31.73;20.98;;;14.80;99.90;;;;;;4889670;29;20084;-74
2021/04/29 02:35:09;;;;;;;37.75;23.50;;;14.80;99.90;;;;;;4878531;29;20068;-75
2021/04/29 02:37:37;;;;;;;36.22;21.27;;;14.80;99.90;;;;;;4868300;29;20061;-74
2021/04/29 02:40:04;;;;;;;35.38;22.17;;;14.80;99.90;;;;;;4862772;29;20043;-74
2021/04/29 02:42:31;;;;;;;36.42;21.00;;;14.80;99.90;;;;;;4880264;29;20077;-74
2021/04/29 02:44:57;;;;;;;33.63;21.83;;;14.80;99.90;;;;;;4886679;29;20028;-74
2021/04/29 02:47:23;;;;;;;34.75;22.45;;;14.80;99.90;;;;;;4878339;29;20036;-75
2021/04/29 02:49:49;;;;;;;39.45;22.35;;;14.80;99.90;;;;;;4861017;29;20496;-74
2021/04/29 02:52:14;;;;;;;35.10;22.05;;;14.80;99.90;;;;;;4878880;29;20112;-74
2021/04/29 02:54:42;;;;;;;34.97;21.75;;;14.80;99.90;;;;;;4848108;29;20037;-74
2021/04/29 02:57:07;;;;;;;33.83;21.20;;;14.70;99.90;;;;;;4843756;29;20374;-74
2021/04/29 02:59:40;;;;;;;36.17;21.20;;;14.70;99.90;;;;;;4860218;29;20033;-74
2021/04/29 03:02:08;;;;;;;32.58;22.10;;;14.70;99.90;;;;;;4856695;29;20043;-74
2021/04/29 03:04:34;;;;;;;33.42;21.63;;;14.60;99.90;;;;;;4846944;29;20033;-74
2021/04/29 03:07:00;;;;;;;36.17;21.92;;;14.70;99.90;;;;;;4843610;29;20032;-74
2021/04/29 03:09:26;;;;;;;34.63;21.70;;;14.70;99.90;;;;;;4860131;29;20099;-74
2021/04/29 03:11:51;;;;;;;32.58;20.60;;;14.70;99.90;;;;;;4860053;29;20082;-74
2021/04/29 03:14:17;;;;;;;35.92;22.35;;;14.70;99.90;;;;;;4872149;29;20029;-74
2021/04/29 03:16:42;;;;;;;34.70;20.90;;;14.70;99.90;;;;;;4878678;29;20029;-74
2021/04/29 03:19:08;;;;;;;31.67;20.58;;;14.70;99.90;;;;;;4878513;29;20351;-74
2021/04/29 03:21:34;;;;;;;35.40;21.05;;;14.70;99.90;;;;;;4875520;29;20034;-74
2021/04/29 03:24:00;;;;;;;33.83;21.58;;;14.70;99.90;;;;;;4869570;29;20116;-74
2021/04/29 03:26:26;;;;;;;33.38;20.08;;;14.70;99.90;;;;;;4878528;29;20442;-74
2021/04/29 03:28:52;;;;;;;33.40;21.35;;;14.70;99.90;;;;;;4876723;29;20104;-75
2021/04/29 03:31:19;;;;;;;33.90;22.17;;;14.70;99.90;;;;;;4878524;29;20418;-74
2021/04/29 03:33:44;;;;;;;33.28;21.15;;;14.70;99.90;;;;;;4870586;29;20041;-74
2021/04/29 03:36:10;;;;;;;32.70;21.15;;;14.70;99.90;;;;;;4843176;29;20029;-74
2021/04/29 03:38:36;;;;;;;34.78;20.90;;;14.80;99.90;;;;;;4890476;29;20152;-74
2021/04/29 03:41:01;;;;;;;35.55;22.90;;;14.80;99.90;;;;;;4864224;29;20029;-75
2021/04/29 03:43:27;;;;;;;39.42;23.25;;;14.80;99.90;;;;;;4860438;29;20025;-75
2021/04/29 03:45:53;;;;;;;36.92;22.80;;;14.70;99.90;;;;;;4843157;29;20194;-74
2021/04/29 03:48:19;;;;;;;41.05;23.55;;;14.70;99.90;;;;;;4861128;29;20378;-75
2021/04/29 03:50:44;;;;;;;36.55;22.50;;;14.70;99.90;;;;;;4879907;29;20029;-75
2021/04/29 03:53:10;;;;;;;34.45;22.60;;;14.70;99.90;;;;;;4893484;29;20031;-75
2021/04/29 03:55:36;;;;;;;35.65;22.00;;;14.70;99.90;;;;;;4847154;29;20044;-75
2021/04/29 03:58:01;;;;;;;31.02;21.38;;;14.70;99.90;;;;;;4863575;29;20033;-74
2021/04/29 04:00:27;;;;;;;41.20;22.98;;;14.70;99.90;;;;;;4846847;29;20483;-74
2021/04/29 04:02:53;;;;;;;34.10;22.35;;;14.70;99.90;;;;;;4863547;29;20030;-74
2021/04/29 04:05:18;;;;;;;30.88;20.10;;;14.70;99.90;;;;;;4882026;29;20036;-75
2021/04/29 04:07:44;;;;;;;30.48;20.27;;;14.70;99.90;;;;;;4881952;29;20029;-74
2021/04/29 04:10:10;;;;;;;32.25;20.63;;;14.70;99.90;;;;;;4891609;29;20545;-74
2021/04/29 04:12:36;;;;;;;31.60;19.27;;;14.70;99.90;;;;;;4881789;29;20040;-74
2021/04/29 04:15:03;;;;;;;30.00;19.77;;;14.70;99.90;;;;;;4866979;29;20502;-74
2021/04/29 04:17:29;;;;;;;30.52;19.77;;;14.70;99.90;;;;;;4846401;29;20033;-74
2021/04/29 04:19:55;;;;;;;34.67;21.00;;;14.70;99.90;;;;;;4863254;29;20382;-75
2021/04/29 04:22:21;;;;;;;32.28;20.35;;;14.70;99.90;;;;;;4881669;29;20145;-74
2021/04/29 04:24:49;;;;;;;33.55;20.63;;;14.60;99.90;;;;;;4876963;29;20048;-74
2021/04/29 04:27:15;;;;;;;34.45;19.85;;;14.60;99.90;;;;;;4886396;29;20084;-74
2021/04/29 04:29:41;;;;;;;33.63;20.70;;;14.60;99.90;;;;;;4868081;29;20389;-74
2021/04/29 04:32:06;;;;;;;29.55;18.73;;;14.60;99.90;;;;;;4873475;29;20049;-74
2021/04/29 04:34:32;;;;;;;32.90;19.85;;;14.60;99.90;;;;;;4866788;29;20762;-75
2021/04/29 04:36:58;;;;;;;30.50;18.90;;;14.60;99.90;;;;;;4876128;29;20504;-74
2021/04/29 04:39:24;;;;;;;30.55;19.13;;;14.60;99.90;;;;;;4877539;29;20037;-74
2021/04/29 04:41:50;;;;;;;30.92;18.88;;;14.60;99.90;;;;;;4861850;29;20496;-74
2021/04/29 04:44:16;;;;;;;31.65;18.73;;;14.60;99.90;;;;;;4869146;29;20104;-74
2021/04/29 04:46:42;;;;;;;30.92;18.27;;;14.60;99.90;;;;;;4858649;29;20107;-74
2021/04/29 04:49:08;;;;;;;30.95;18.60;;;14.60;99.90;;;;;;4881051;29;20061;-74
2021/04/29 04:51:34;;;;;;;29.13;17.67;;;14.60;99.90;;;;;;4881152;29;20032;-75
2021/04/29 04:54:01;;;;;;;29.23;18.52;;;14.60;99.90;;;;;;4881081;29;20432;-74
2021/04/29 04:56:28;;;;;;;29.35;17.70;;;14.60;99.90;;;;;;4881107;29;20025;-74
2021/04/29 04:58:54;;;;;;;28.33;17.75;;;14.70;99.90;;;;;;4880665;29;20085;-74
2021/04/29 05:01:20;;;;;;;27.98;17.30;;;14.70;99.90;;;;;;4878096;29;20029;-74
2021/04/29 05:03:46;;;;;;;29.35;18.95;;;14.70;99.90;;;;;;4860797;29;20082;-75
2021/04/29 05:06:14;;;;;;;27.52;17.27;;;14.70;99.90;;;;;;4874300;29;20172;-74
2021/04/29 05:08:40;;;;;;;31.02;17.35;;;14.70;99.90;;;;;;4861798;29;20053;-74
2021/04/29 05:11:05;;;;;;;28.08;16.77;;;14.70;99.90;;;;;;4878244;29;20049;-74
2021/04/29 05:13:31;;;;;;;32.72;17.58;;;14.70;99.90;;;;;;4880672;29;20025;-74
2021/04/29 05:15:57;;;;;;;27.23;16.77;;;14.70;99.90;;;;;;4880650;29;20468;-74
2021/04/29 05:18:26;;;;;;;27.95;16.88;;;14.60;99.90;;;;;;4880703;29;20018;-74
2021/04/29 05:20:51;;;;;;;25.92;17.30;;;14.70;99.90;;;;;;4880627;29;20033;-74
2021/04/29 05:23:17;;;;;;;27.48;16.33;;;14.60;99.90;;;;;;4889091;29;20500;-74
2021/04/29 05:25:43;;;;;;;26.70;15.88;;;14.50;99.90;;;;;;4879596;29;20036;-74
2021/04/29 05:28:09;;;;;;;24.75;16.70;;;14.50;99.90;;;;;;4880428;29;20029;-74
2021/04/29 05:30:35;;;;;;;25.42;14.73;;;14.50;99.90;;;;;;4862822;29;20029;-74
2021/04/29 05:33:01;;;;;;;24.40;14.80;;;14.50;99.90;;;;;;4854589;29;20478;-79
2021/04/29 05:35:26;;;;;;;23.98;15.30;;;14.50;99.90;;;;;;4862097;29;20030;-79
2021/04/29 05:37:52;;;;;;;28.05;15.57;;;14.50;99.90;;;;;;4864477;29;20545;-79
2021/04/29 05:40:18;;;;;;;24.73;15.52;;;14.60;99.90;;;;;;4895090;29;20024;-79
2021/04/29 05:42:44;;;;;;;22.65;14.65;;;14.50;99.90;;;;;;4869395;29;20029;-78
2021/04/29 05:45:11;;;;;;;26.17;15.25;;;14.50;99.90;;;;;;4880502;29;20389;-79
2021/04/29 05:47:37;;;;;;;24.95;15.82;;;14.50;99.90;;;;;;4880443;29;20025;-79
2021/04/29 05:50:06;;;;;;;26.45;15.52;;;14.60;99.90;;;;;;4880398;29;20035;-79
2021/04/29 05:52:33;;;;;;;28.05;15.75;;;14.60;99.90;;;;;;4869197;29;20044;-79
2021/04/29 05:54:59;;;;;;;27.02;16.58;;;14.60;99.90;;;;;;4861800;29;20029;-79
2021/04/29 05:57:25;;;;;;;23.90;15.57;;;14.60;99.90;;;;;;4861814;29;20090;-79
2021/04/29 05:59:51;;;;;;;27.45;17.83;;;14.60;99.90;;;;;;4845139;29;20037;-79
2021/04/29 06:02:16;;;;;;;26.00;17.75;;;14.60;99.90;;;;;;4861650;29;20036;-79
2021/04/29 06:04:42;;;;;;;27.88;17.98;;;14.60;99.90;;;;;;4861399;29;20085;-79
2021/04/29 06:07:09;;;;;;;30.13;17.20;;;14.60;99.90;;;;;;4861490;29;20034;-79
2021/04/29 06:09:35;;;;;;;29.67;17.38;;;14.60;99.90;;;;;;4844782;29;20028;-79
2021/04/29 06:12:03;;;;;;;26.75;17.45;;;14.60;99.90;;;;;;4845206;29;20033;-79
2021/04/29 06:14:29;;;;;;;27.77;18.15;;;14.60;99.90;;;;;;4879915;29;20033;-79
2021/04/29 06:16:56;;;;;;;32.53;18.23;;;14.70;99.90;;;;;;4863346;29;20772;-79
2021/04/29 06:19:21;;;;;;;30.08;17.60;;;14.70;99.90;;;;;;4879975;29;20032;-79
2021/04/29 06:21:47;;;;;;;28.23;16.23;;;14.60;99.90;;;;;;4880026;29;20397;-79
2021/04/29 06:24:13;;;;;;;24.13;14.70;;;14.60;99.90;;;;;;4879807;29;20033;-79
2021/04/29 06:26:40;;;;;;;23.92;14.88;;;14.60;99.90;;;;;;4878440;29;20029;-79
2021/04/29 06:29:06;;;;;;;22.17;14.05;;;14.60;99.90;;;;;;4875361;29;20025;-79
2021/04/29 06:31:35;;;;;;;21.50;14.50;;;14.60;99.90;;;;;;4879392;29;20137;-79
2021/04/29 06:34:01;;;;;;;24.02;15.35;;;14.60;99.90;;;;;;4879159;29;20661;-79
2021/04/29 06:36:27;;;;;;;25.30;15.70;;;14.60;99.90;;;;;;4862635;29;20037;-79
2021/04/29 06:38:53;;;;;;;23.70;13.80;;;14.60;99.90;;;;;;4879424;29;20561;-79
2021/04/29 06:41:18;;;;;;;21.33;13.80;;;14.60;99.90;;;;;;4880038;29;20367;-79
2021/04/29 06:43:44;;;;;;;23.23;15.75;;;14.60;99.90;;;;;;4888985;29;20661;-79
2021/04/29 06:46:11;;;;;;;24.27;15.30;;;14.60;99.90;;;;;;4866277;29;20041;-79
2021/04/29 06:48:37;;;;;;;23.25;16.05;;;14.50;99.90;;;;;;4879074;29;20021;-79
2021/04/29 06:51:03;;;;;;;24.17;15.95;;;14.60;99.90;;;;;;4879255;29;20040;-79
2021/04/29 06:53:28;;;;;;;22.73;14.77;;;14.60;99.90;;;;;;4884525;29;20545;-79
2021/04/29 06:55:54;;;;;;;29.45;17.02;;;14.60;99.90;;;;;;4884746;29;20033;-79
2021/04/29 06:58:20;;;;;;;24.00;16.08;;;14.60;99.90;;;;;;4887168;29;20033;-78
2021/04/29 07:00:45;;;;;;;25.95;15.32;;;14.60;99.90;;;;;;4879132;29;20088;-79
2021/04/29 07:03:11;;;;;;;24.05;14.77;;;14.50;99.90;;;;;;4876252;29;20482;-79
2021/04/29 07:05:37;;;;;;;27.10;16.58;;;14.50;99.90;;;;;;4861586;29;20041;-78
2021/04/29 07:08:03;;;;;;;26.08;16.60;;;14.50;99.90;;;;;;4882612;29;20100;-79
2021/04/29 07:10:28;;;;;;;26.52;15.57;;;14.50;99.90;;;;;;4876471;29;20036;-79
2021/04/29 07:12:54;;;;;;;22.42;14.90;;;14.50;99.90;;;;;;4876100;29;20017;-79
2021/04/29 07:15:20;;;;;;;28.80;15.75;;;14.60;99.90;;;;;;4876532;29;20101;-79
2021/04/29 07:17:47;;;;;;;33.03;19.65;;;14.60;99.90;;;;;;4858965;29;20470;-74
2021/04/29 07:20:14;;;;;;;33.97;19.77;;;14.60;99.90;;;;;;4859840;29;20092;-75
2021/04/29 07:22:40;;;;;;;37.15;21.70;;;14.60;99.90;;;;;;4863152;29;20128;-75
2021/04/29 07:25:07;;;;;;;36.33;20.77;;;14.50;99.90;;;;;;4879033;29;20028;-76
2021/04/29 07:27:34;;;;;;;37.88;22.15;;;14.60;99.90;;;;;;4896575;29;20036;-75
2021/04/29 07:30:00;;;;;;;33.45;20.85;;;14.60;99.90;;;;;;4896169;29;20052;-75
2021/04/29 07:32:26;;;;;;;37.40;21.73;;;14.50;99.90;;;;;;4894885;29;20160;-75
2021/04/29 07:34:52;;;;;;;36.25;21.35;;;14.50;99.90;;;;;;4885601;29;20033;-75
2021/04/29 07:37:17;;;;;;;36.03;21.00;;;14.50;99.90;;;;;;4875731;29;20413;-75
2021/04/29 07:39:43;;;;;;;39.42;21.95;;;14.50;99.90;;;;;;4874338;29;20063;-74
2021/04/29 07:42:09;;;;;;;36.60;20.77;;;14.60;99.90;;;;;;4876043;29;20112;-74
2021/04/29 07:44:35;;;;;;;33.22;21.63;;;14.60;99.90;;;;;;4875497;29;20029;-74
2021/04/29 07:47:01;;;;;;;34.47;20.98;;;14.60;99.90;;;;;;4874519;29;20033;-74
2021/04/29 07:49:26;;;;;;;34.90;21.35;;;14.70;99.90;;;;;;4875427;29;20113;-74
2021/04/29 07:51:52;;;;;;;35.38;21.67;;;14.70;99.90;;;;;;4876359;29;20473;-78
2021/04/29 07:54:18;;;;;;;36.22;22.15;;;14.60;99.90;;;;;;4860306;29;20036;-79
2021/04/29 07:56:44;;;;;;;36.20;21.58;;;14.70;99.90;;;;;;4876538;29;20037;-79
2021/04/29 07:59:10;;;;;;;35.85;21.05;;;14.70;99.90;;;;;;4876299;29;20017;-78
2021/04/29 08:01:36;;;;;;;36.22;21.27;;;14.60;99.90;;;;;;4876901;29;20029;-79
2021/04/29 08:04:02;;;;;;;35.45;20.92;;;14.60;99.90;;;;;;4876250;29;20081;-80
2021/04/29 08:06:28;;;;;;;34.58;18.52;;;14.70;99.90;;;;;;4876823;29;20036;-80
2021/04/29 08:08:55;;;;;;;27.98;18.77;;;14.70;99.90;;;;;;4877218;29;20024;-80
2021/04/29 08:11:21;;;;;;;32.00;19.77;;;14.70;99.90;;;;;;4876784;29;20076;-80
2021/04/29 08:13:50;;;;;;;37.40;20.60;;;14.80;99.90;;;;;;4876837;29;20025;-81
2021/04/29 08:16:16;;;;;;;33.70;20.20;;;14.80;99.90;;;;;;4860565;29;20033;-80
2021/04/29 08:18:44;;;;;;;31.50;17.15;;;14.90;99.90;;;;;;4860799;29;20398;-74
2021/04/29 08:21:09;;;;;;;22.80;13.80;;;14.90;99.90;;;;;;4894436;29;20033;-75
2021/04/29 08:23:36;;;;;;;24.75;14.95;;;14.90;99.90;;;;;;4895332;29;20027;-74
2021/04/29 08:26:02;;;;;;;23.30;15.57;;;14.90;99.90;;;;;;4878580;29;20032;-75
2021/04/29 08:28:28;;;;;;;34.55;18.40;;;15.00;99.90;;;;;;4893944;29;20049;-74
2021/04/29 08:30:55;;;;;;;22.73;14.02;;;15.10;99.90;;;;;;4894082;29;20487;-75
2021/04/29 08:33:21;;;;;;;23.10;14.43;;;15.10;99.90;;;;;;4870761;29;20033;-74
2021/04/29 08:35:47;;;;;;;21.50;14.20;;;15.10;99.90;;;;;;4875123;29;20111;-74
2021/04/29 08:38:13;;;;;;;22.75;13.70;;;15.10;99.90;;;;;;4875915;29;20630;-75
2021/04/29 08:40:39;;;;;;;19.38;13.65;;;15.20;99.90;;;;;;4875073;29;20063;-74
2021/04/29 08:43:05;;;;;;;17.63;12.23;;;15.30;99.90;;;;;;4876547;29;20025;-74
2021/04/29 08:45:33;;;;;;;20.45;13.93;;;15.30;99.90;;;;;;4875193;29;20029;-75
2021/04/29 08:47:59;;;;;;;29.40;14.63;;;15.40;99.90;;;;;;4858188;29;20025;-74
2021/04/29 08:50:27;;;;;;;18.77;12.20;;;15.50;99.90;;;;;;4875948;29;20052;-74
2021/04/29 08:52:53;;;;;;;17.05;11.02;;;15.60;99.90;;;;;;4889138;29;20048;-74
2021/04/29 08:55:27;;;;;;;13.90;10.30;;;15.70;99.90;;;;;;4883252;29;20025;-75
2021/04/29 08:57:53;;;;;;;13.93;9.70;;;15.70;99.90;;;;;;4875645;29;20037;-74
2021/04/29 09:00:21;;;;;;;14.20;10.18;;;15.70;99.90;;;;;;4877321;29;20036;-77
2021/04/29 09:02:48;;;;;;;16.60;11.52;;;15.70;99.90;;;;;;4890767;29;20040;-77
2021/04/29 09:05:16;;;;;;;13.20;9.77;;;15.80;99.90;;;;;;4879800;29;20029;-76
2021/04/29 09:07:56;;;;;;;16.17;9.27;;;15.80;99.90;;;;;;4879773;29;20032;-76
2021/04/29 09:10:34;;;;;;;10.95;9.02;;;15.80;99.90;;;;;;4897729;29;20112;-76
2021/04/29 09:13:11;;;;;;;13.57;9.80;;;15.90;99.90;;;;;;4897452;29;20028;-76
2021/04/29 09:15:39;;;;;;;14.23;9.43;;;15.90;99.90;;;;;;4897602;29;20759;-76
2021/04/29 09:18:15;;;;;;;14.55;9.43;;;15.90;99.90;;;;;;4896918;29;20119;-76
2021/04/29 09:20:53;;;;;;;13.93;9.57;;;15.90;99.90;;;;;;4880593;29;20109;-76
2021/04/29 09:23:26;;;;;;;13.18;9.60;;;15.90;99.90;;;;;;4861687;29;20390;-76
2021/04/29 09:25:56;;;;;;;14.80;9.60;;;16.00;99.90;;;;;;4878452;29;20029;-76
2021/04/29 09:28:37;;;;;;;14.63;9.60;;;16.00;99.90;;;;;;4865133;29;20041;-77
2021/04/29 09:31:24;;;;;;;15.43;10.60;;;16.10;99.90;;;;;;4880023;29;20055;-77
2021/04/29 09:33:56;;;;;;;14.38;10.05;;;16.10;99.90;;;;;;4869201;29;20028;-77
2021/04/29 09:36:33;;;;;;;17.88;10.75;;;16.10;99.90;;;;;;4891386;29;20037;-75
2021/04/29 09:39:16;;;;;;;18.60;11.02;;;16.10;99.90;;;;;;4881162;29;20509;-75
2021/04/29 09:41:49;;;;;;;16.38;11.27;;;16.20;99.90;;;;;;4876036;29;20021;-75
2021/04/29 09:44:35;;;;;;;17.20;11.00;;;16.20;99.90;;;;;;4882939;29;20464;-75
2021/04/29 09:47:02;;;;;;;14.82;11.32;;;16.20;99.90;;;;;;4885358;29;20025;-76
2021/04/29 09:49:34;;;;;;;18.73;11.93;;;16.10;99.90;;;;;;4885263;29;20024;-75
2021/04/29 09:52:02;;;;;;;16.40;11.57;;;16.10;99.90;;;;;;4882210;29;20021;-75
2021/04/29 09:54:40;;;;;;;17.70;12.07;;;16.10;99.90;;;;;;4881573;29;20017;-75
2021/04/29 09:57:09;;;;;;;20.92;12.65;;;16.20;99.90;;;;;;4872380;29;20029;-75
2021/04/29 09:59:40;;;;;;;22.67;14.55;;;16.10;99.90;;;;;;4887625;29;20369;-75
2021/04/29 10:02:07;;;;;;;23.33;15.20;;;16.00;99.90;;;;;;4890600;29;20414;-75
2021/04/29 10:04:33;;;;;;;26.08;15.82;;;16.00;99.90;;;;;;4881400;29;20265;-74
2021/04/29 10:07:03;;;;;;;24.08;15.73;;;16.00;99.90;;;;;;4881254;29;20085;-75
2021/04/29 10:09:30;;;;;;;27.35;16.48;;;15.90;99.90;;;;;;4845751;29;20013;-77
2021/04/29 10:12:00;;;;;;;25.55;16.38;;;15.90;99.90;;;;;;4884933;29;20112;-77
2021/04/29 10:14:26;;;;;;;23.13;15.48;;;15.90;99.90;;;;;;4870781;29;20050;-77
2021/04/29 10:16:53;;;;;;;21.63;14.73;;;15.90;99.90;;;;;;4890093;29;20115;-77
2021/04/29 10:19:19;;;;;;;24.65;16.05;;;15.80;99.90;;;;;;4877670;29;20038;-76
2021/04/29 10:21:45;;;;;;;23.27;16.02;;;15.80;99.90;;;;;;4887292;29;20044;-77
2021/04/29 10:24:11;;;;;;;22.05;15.52;;;15.80;99.90;;;;;;4877927;29;20101;-77
2021/04/29 10:26:39;;;;;;;23.35;15.52;;;15.70;99.90;;;;;;4895916;29;20033;-77
2021/04/29 10:29:07;;;;;;;23.65;16.02;;;15.80;99.90;;;;;;4896016;29;20021;-77
2021/04/29 10:31:35;;;;;;;22.90;15.13;;;15.80;99.90;;;;;;4893091;29;20104;-77
2021/04/29 10:34:04;;;;;;;21.92;16.13;;;15.80;99.90;;;;;;4879318;29;20537;-77
2021/04/29 10:36:41;;;;;;;24.90;15.43;;;15.80;99.90;;;;;;4881566;29;20036;-77
2021/04/29 10:39:24;;;;;;;25.20;16.27;;;15.80;99.90;;;;;;4894995;29;20051;-78
2021/04/29 10:42:03;;;;;;;25.08;15.60;;;15.80;99.90;;;;;;4878164;29;20028;-76
2021/04/29 10:44:40;;;;;;;26.05;16.25;;;15.80;99.90;;;;;;4894723;29;20028;-77
2021/04/29 10:47:06;;;;;;;28.90;17.45;;;15.80;99.90;;;;;;4893489;29;20123;-77
2021/04/29 10:49:34;;;;;;;23.38;15.75;;;15.80;99.90;;;;;;4887828;29;20112;-77
2021/04/29 10:52:01;;;;;;;25.70;16.60;;;15.80;99.90;;;;;;4859243;29;20120;-77
2021/04/29 10:54:27;;;;;;;28.67;16.92;;;15.70;99.90;;;;;;4875950;29;20077;-77
2021/04/29 10:57:11;;;;;;;26.60;15.65;;;15.70;99.90;;;;;;4875723;29;20033;-75
2021/04/29 10:59:37;;;;;;;25.40;15.43;;;15.80;99.90;;;;;;4875364;29;20021;-75
2021/04/29 11:02:03;;;;;;;24.23;15.23;;;15.80;99.90;;;;;;4875152;29;20055;-75
2021/04/29 11:04:40;;;;;;;20.25;14.52;;;15.70;99.90;;;;;;4874926;29;20029;-75
2021/04/29 11:07:11;;;;;;;24.42;15.70;;;15.60;99.90;;;;;;4874996;29;20021;-75
2021/04/29 11:09:37;;;;;;;23.83;16.17;;;15.60;99.90;;;;;;4875219;29;20111;-75
2021/04/29 11:12:06;;;;;;;23.85;15.93;;;15.60;99.90;;;;;;4875250;29;20025;-75
2021/04/29 11:14:44;;;;;;;21.58;15.68;;;15.60;99.90;;;;;;4858029;29;20630;-75
2021/04/29 11:17:26;;;;;;;22.58;15.70;;;15.70;99.90;;;;;;4875251;29;20025;-76
2021/04/29 11:19:58;;;;;;;23.60;15.70;;;15.60;99.90;;;;;;4874939;29;20104;-75
2021/04/29 11:22:30;;;;;;;23.05;16.48;;;15.60;99.90;;;;;;4874930;29;20033;-75
2021/04/29 11:24:56;;;;;;;25.10;16.92;;;15.60;99.90;;;;;;4875246;29;20037;-75
2021/04/29 11:27:29;;;;;;;27.30;18.05;;;15.60;99.90;;;;;;4875532;29;20029;-76
2021/04/29 11:29:59;;;;;;;25.75;17.15;;;15.60;99.90;;;;;;4875074;29;20128;-76
2021/04/29 11:32:26;;;;;;;26.13;17.17;;;15.60;99.90;;;;;;4854399;29;620210;-75
2021/04/29 11:34:54;;;;;;;30.08;16.08;;;15.70;99.90;;;;;;4876021;29;20553;-75
2021/04/29 11:37:20;;;;;;;27.02;17.55;;;15.60;99.90;;;;;;4874204;29;20030;-75
2021/04/29 11:40:00;;;;;;;27.75;18.20;;;15.60;99.90;;;;;;4858344;29;20029;-75
2021/04/29 11:42:31;;;;;;;26.17;18.73;;;15.60;99.90;;;;;;4875195;29;20478;-75
2021/04/29 11:45:15;;;;;;;25.15;17.98;;;15.60;99.90;;;;;;4875764;29;20037;-76
2021/04/29 11:48:01;;;;;;;31.05;19.80;;;15.70;99.90;;;;;;4874134;29;20393;-75
2021/04/29 11:50:33;;;;;;;28.83;20.27;;;15.70;99.90;;;;;;4873707;29;20045;-75
2021/04/29 11:53:37;;;;;;;27.63;19.13;;;15.70;99.90;;;;;;4873673;29;20033;-74
2021/04/29 11:56:05;;;;;;;31.40;19.40;;;15.80;99.90;;;;;;4831492;29;20093;-75
2021/04/29 11:58:31;;;;;;;30.33;20.10;;;15.80;99.90;;;;;;4820508;29;20668;-75
2021/04/29 12:00:57;;;;;;;30.77;20.15;;;15.80;99.90;;;;;;4863855;29;20040;-75
2021/04/29 12:03:26;;;;;;;27.73;18.95;;;15.80;99.90;;;;;;4893411;29;20063;-75
2021/04/29 12:05:59;;;;;;;32.67;20.40;;;15.80;99.90;;;;;;4894149;29;20024;-75
2021/04/29 12:08:35;;;;;;;27.85;19.05;;;15.80;99.90;;;;;;4876960;29;20028;-75
2021/04/29 12:11:06;;;;;;;29.83;19.95;;;15.80;99.90;;;;;;4897769;29;20504;-75
2021/04/29 12:13:45;;;;;;;27.92;20.40;;;15.70;99.90;;;;;;4898255;29;20033;-76
2021/04/29 12:16:32;;;;;;;29.42;20.13;;;15.70;99.90;;;;;;4881410;29;20028;-75
2021/04/29 12:18:59;;;;;;;28.45;19.95;;;15.80;99.90;;;;;;4889740;29;20028;-75
2021/04/29 12:21:28;;;;;;;31.42;20.45;;;15.80;99.90;;;;;;4876860;29;20381;-75
2021/04/29 12:24:00;;;;;;;31.80;20.27;;;15.90;99.90;;;;;;4861591;29;20029;-76
2021/04/29 12:26:40;;;;;;;29.48;20.40;;;16.00;99.90;;;;;;4881731;29;20088;-75
2021/04/29 12:29:09;;;;;;;28.48;18.98;;;16.10;99.90;;;;;;4880116;29;20025;-75
2021/04/29 12:31:36;;;;;;;31.92;20.23;;;16.10;99.90;;;;;;4880301;29;20063;-75
2021/04/29 12:34:05;;;;;;;35.33;20.35;;;16.20;99.90;;;;;;4889159;29;20037;-75